Ault Field, Washington
Current Conditions -  °F | °C
As of 6:56 AM on Sunday 21 Dec 2014 (Local Time) from KNUW Reporting Station
Overcast Overcast  
Wind Chill: 51°   Ceiling: 6000
Heat Index: 51°   Visibility: 10mi
Dew Point: 44°   Wind: 15mph
Humidity: 77%   Direction: 250°WSW
Pressure: 29.8"   Gusts: NA
Location:  48.3182°N, 122.634°W
Report Text: KNUW 211456Z 25013KT 10SM FEW014 BKN060 OVC090 11/07 A2980 RMK AO2 RAB11E25 PRESRR SLP096 P0000 60002 T01060067 53033 VISNO E $
Loading
Personal Weather Stations






























Interactive Weather Map New forecast layout! Learn more

10-Day Weather Forecast

Advertisements
Track Severe Weather on mobile